Time;durP1;ratioP1;P1;durP2;ratioP2;P2;SDS_P1;SDS_P2;PMS_P1;PMS_P2;Temp;Humidity;BMP_temperature;BMP_pressure;BME280_temperature;BME280_humidity;BME280_pressure;Samples;Min_cycle;Max_cycle;Signal;HPM_P1;HPM_P2
2021/12/25 00:09:15;;;;;;;0.10;0.08;;;5.30;99.90;;;;;;21071509;28;20052;-49
2021/12/25 00:19:17;;;;;;;0.20;0.00;;;5.20;99.90;;;;;;21070369;28;20096;-52
2021/12/25 00:39:29;;;;;;;0.10;0.00;;;5.40;99.90;;;;;;21052546;28;20066;-51
2021/12/25 00:49:32;;;;;;;0.13;0.03;;;5.30;99.90;;;;;;21068063;28;20040;-49
2021/12/25 00:59:35;;;;;;;0.00;0.00;;;5.50;99.90;;;;;;21066702;28;20043;-49
2021/12/25 01:09:38;;;;;;;0.00;0.00;;;5.30;99.90;;;;;;21049949;28;20044;-50
2021/12/25 01:30:33;;;;;;;;;;;5.30;99.90;;;;;;21040857;28;20048;-53
2021/12/25 01:50:52;;;;;;;0.35;0.00;;;5.30;99.90;;;;;;21038807;28;20290;-50
2021/12/25 02:00:58;;;;;;;0.28;0.00;;;5.40;99.90;;;;;;21039593;28;20564;-51
2021/12/25 02:11:01;;;;;;;0.00;0.00;;;5.40;99.90;;;;;;21044058;28;20040;-52
2021/12/25 02:21:22;;;;;;;0.20;0.10;;;5.50;99.90;;;;;;21063555;28;20048;-49
2021/12/25 02:31:26;;;;;;;0.38;0.10;;;5.40;99.90;;;;;;21079978;28;20097;-52
2021/12/25 02:41:29;;;;;;;0.20;0.10;;;5.50;99.90;;;;;;21062855;28;20047;-51
2021/12/25 02:51:31;;;;;;;0.00;0.00;;;5.70;99.90;;;;;;21077027;28;20113;-51
2021/12/25 03:01:34;;;;;;;0.25;0.10;;;5.50;99.90;;;;;;21060166;28;20062;-51
2021/12/25 03:11:37;;;;;;;0.38;0.10;;;5.70;99.90;;;;;;21058916;28;20044;-51
2021/12/25 03:21:39;;;;;;;1.67;0.40;;;5.70;99.90;;;;;;21058579;28;20089;-51
2021/12/25 03:31:41;;;;;;;1.17;0.60;;;5.30;99.90;;;;;;21074120;28;20040;-51
2021/12/25 03:41:45;;;;;;;1.23;0.50;;;5.00;99.90;;;;;;21056218;28;20485;-50
2021/12/25 04:02:18;;;;;;;2.30;0.98;;;5.40;99.90;;;;;;21070941;28;20032;-50
2021/12/25 04:12:22;;;;;;;0.60;0.28;;;5.10;99.90;;;;;;21070622;28;20483;-50
2021/12/25 04:22:32;;;;;;;0.77;0.30;;;4.90;99.90;;;;;;21053509;28;20056;-51
2021/12/25 04:33:10;;;;;;;1.47;0.20;;;5.10;99.90;;;;;;21069535;28;20078;-50
2021/12/25 05:03:54;;;;;;;0.85;0.20;;;5.30;99.90;;;;;;21067575;28;19961;-50
2021/12/25 05:14:18;;;;;;;0.63;0.20;;;5.30;99.90;;;;;;21066602;28;20090;-50
2021/12/25 05:24:21;;;;;;;0.45;0.17;;;5.50;99.90;;;;;;21066144;28;20039;-51
2021/12/25 05:34:28;;;;;;;0.57;0.25;;;5.70;99.90;;;;;;21065345;28;20044;-51
2021/12/25 05:44:54;;;;;;;0.10;0.10;;;5.90;99.90;;;;;;21057411;28;20100;-52
2021/12/25 05:54:59;;;;;;;0.38;0.10;;;5.90;99.90;;;;;;21065234;28;20044;-50
2021/12/25 06:05:20;;;;;;;;;;;5.80;99.90;;;;;;21080964;28;20062;-51
2021/12/25 06:15:24;;;;;;;0.03;0.00;;;5.80;99.90;;;;;;21063544;28;19927;-52
2021/12/25 06:25:53;;;;;;;0.90;0.05;;;5.70;99.90;;;;;;21076412;28;20453;-52
2021/12/25 06:36:04;;;;;;;0.00;0.00;;;5.70;99.90;;;;;;21078658;28;20040;-51
2021/12/25 06:46:29;;;;;;;4.35;2.70;;;5.70;99.90;;;;;;21077872;28;20048;-50
2021/12/25 06:56:33;;;;;;;3.33;1.20;;;5.00;99.90;;;;;;21060908;28;20496;-52
2021/12/25 07:06:41;;;;;;;0.25;0.17;;;4.40;99.90;;;;;;21059769;28;20040;-50
2021/12/25 07:17:02;;;;;;;0.70;0.30;;;4.40;99.90;;;;;;21074992;28;20048;-50
2021/12/25 07:27:30;;;;;;;0.20;0.05;;;5.10;99.90;;;;;;21058595;28;20097;-51
2021/12/25 07:37:34;;;;;;;1.27;0.10;;;5.70;99.90;;;;;;21073629;28;20572;-50
2021/12/25 07:47:45;;;;;;;0.30;0.10;;;5.40;99.90;;;;;;21073562;28;20048;-50
2021/12/25 07:57:48;;;;;;;0.20;0.10;;;5.80;99.90;;;;;;21072500;28;20069;-51
2021/12/25 08:07:50;;;;;;;6.68;4.10;;;5.40;99.90;;;;;;21071364;28;20097;-51
2021/12/25 08:17:56;;;;;;;8.05;4.35;;;5.00;99.90;;;;;;21070963;28;20048;-52
2021/12/25 08:28:09;;;;;;;7.88;4.05;;;4.10;99.90;;;;;;21069939;28;20376;-50
2021/12/25 08:38:30;;;;;;;6.25;4.10;;;4.00;99.90;;;;;;21069785;28;20433;-51
2021/12/25 08:48:33;;;;;;;6.20;3.45;;;4.50;99.90;;;;;;21068316;28;20040;-50
2021/12/25 08:58:37;;;;;;;1.13;0.10;;;4.40;99.90;;;;;;21068558;28;20039;-55
2021/12/25 09:08:40;;;;;;;0.32;0.10;;;4.90;99.90;;;;;;21066793;28;20044;-49
2021/12/25 09:18:43;;;;;;;0.70;0.17;;;6.00;99.90;;;;;;21065761;28;20043;-56
2021/12/25 09:28:47;;;;;;;390.15;25.92;;;6.70;99.90;;;;;;21065750;28;20106;-51
2021/12/25 09:38:49;;;;;;;186.73;10.23;;;6.60;99.90;;;;;;21066148;28;20047;-50
2021/12/25 09:48:52;;;;;;;40.95;6.10;;;5.40;99.90;;;;;;21064982;28;20036;-50
2021/12/25 09:58:55;;;;;;;8.45;3.85;;;5.30;99.90;;;;;;21063983;28;20040;-49
2021/12/25 10:09:21;;;;;;;0.50;0.20;;;5.10;99.90;;;;;;21063944;28;20086;-50
2021/12/25 10:19:30;;;;;;;4.07;2.47;;;6.00;99.90;;;;;;21063765;28;20352;-50
2021/12/25 10:29:34;;;;;;;1.90;1.23;;;6.40;99.90;;;;;;21063566;28;20253;-50
2021/12/25 10:39:36;;;;;;;6.18;3.17;;;6.00;99.90;;;;;;21064306;28;20043;-51
2021/12/25 10:49:46;;;;;;;4.90;2.95;;;6.10;99.90;;;;;;21071894;28;20043;-49
2021/12/25 10:59:48;;;;;;;7.85;3.63;;;6.70;99.90;;;;;;21076150;28;20457;-56
2021/12/25 11:10:08;;;;;;;5.95;2.75;;;7.20;99.90;;;;;;21076284;28;20044;-51
2021/12/25 11:20:18;;;;;;;61.42;6.15;;;7.10;99.90;;;;;;21075240;28;20040;-50
2021/12/25 11:30:25;;;;;;;3.90;2.42;;;6.60;99.90;;;;;;21074288;28;20044;-52
2021/12/25 11:40:30;;;;;;;4.65;2.88;;;6.10;99.90;;;;;;21073643;28;20035;-50
2021/12/25 11:50:40;;;;;;;5.03;2.75;;;6.00;99.90;;;;;;21072639;28;20040;-50
2021/12/25 12:00:50;;;;;;;3.88;2.42;;;6.60;99.90;;;;;;21071361;28;20039;-50
2021/12/25 12:11:00;;;;;;;8.20;3.72;;;6.90;99.90;;;;;;21070994;28;20373;-50
2021/12/25 12:21:23;;;;;;;0.55;0.32;;;6.40;99.90;;;;;;21071874;28;20044;-51
2021/12/25 12:31:41;;;;;;;2.80;0.93;;;6.30;99.90;;;;;;21069528;28;20044;-49
2021/12/25 12:41:52;;;;;;;4.30;1.80;;;6.80;99.90;;;;;;21068851;28;20104;-53
2021/12/25 12:52:15;;;;;;;3.72;1.80;;;6.60;99.90;;;;;;21067799;28;20044;-51
2021/12/25 13:02:19;;;;;;;2.92;1.90;;;6.10;99.90;;;;;;21066808;28;20040;-55
2021/12/25 13:12:38;;;;;;;3.00;1.70;;;5.80;99.90;;;;;;21065660;28;20444;-51
2021/12/25 13:22:40;;;;;;;2.33;0.40;;;5.70;99.90;;;;;;21065970;28;20040;-55
2021/12/25 13:32:44;;;;;;;3.17;1.70;;;5.70;99.90;;;;;;21064921;28;20108;-53
2021/12/25 13:42:47;;;;;;;3.22;1.67;;;5.80;99.90;;;;;;21064940;28;20659;-50
2021/12/25 13:52:58;;;;;;;3.20;1.80;;;5.10;99.90;;;;;;21064636;28;20454;-50
2021/12/25 14:03:10;;;;;;;3.47;1.85;;;5.20;99.90;;;;;;21065199;28;20093;-52
2021/12/25 14:13:19;;;;;;;3.83;2.50;;;5.00;99.90;;;;;;21063835;28;20036;-53
2021/12/25 14:23:22;;;;;;;3.17;2.17;;;4.70;99.90;;;;;;21073698;28;20035;-54
2021/12/25 14:33:27;;;;;;;3.90;1.98;;;4.40;99.90;;;;;;21079219;28;20078;-51
2021/12/25 14:43:33;;;;;;;3.42;1.95;;;4.60;99.90;;;;;;21079135;28;20120;-53
2021/12/25 14:53:46;;;;;;;2.97;1.80;;;4.70;99.90;;;;;;21078355;28;20044;-52
2021/12/25 15:04:12;;;;;;;3.33;1.85;;;4.60;99.90;;;;;;21076949;28;20044;-51
2021/12/25 15:14:24;;;;;;;4.72;2.72;;;4.50;99.90;;;;;;21075376;28;20044;-51
2021/12/25 15:24:27;;;;;;;3.33;2.00;;;4.20;99.90;;;;;;21074863;28;20564;-50
2021/12/25 15:34:30;;;;;;;3.05;1.73;;;3.90;99.90;;;;;;21073090;28;20040;-50
2021/12/25 15:44:34;;;;;;;4.25;2.30;;;4.10;99.90;;;;;;21073514;28;20036;-52
2021/12/25 15:54:38;;;;;;;3.72;1.73;;;4.30;99.90;;;;;;21072948;28;20048;-52
2021/12/25 16:04:42;;;;;;;3.20;1.63;;;4.10;99.90;;;;;;21055476;28;20048;-50
2021/12/25 16:14:44;;;;;;;2.75;1.10;;;4.10;99.90;;;;;;21071055;28;20117;-52
2021/12/25 16:24:47;;;;;;;1.77;0.93;;;4.00;99.90;;;;;;21069188;28;20112;-52
2021/12/25 16:34:49;;;;;;;3.03;1.67;;;4.00;99.90;;;;;;21053193;28;20089;-52
2021/12/25 16:44:54;;;;;;;3.63;1.48;;;4.00;99.90;;;;;;21068642;28;20039;-50
2021/12/25 16:54:56;;;;;;;3.55;1.40;;;4.10;99.90;;;;;;21068041;28;20051;-51
2021/12/25 17:05:13;;;;;;;2.13;1.13;;;4.10;99.90;;;;;;21070552;28;20040;-50
2021/12/25 17:15:18;;;;;;;1.80;1.10;;;4.00;99.90;;;;;;21067027;28;20659;-50
2021/12/25 17:25:26;;;;;;;2.03;0.98;;;3.90;99.90;;;;;;21066424;28;20101;-51
2021/12/25 17:35:32;;;;;;;1.95;0.88;;;3.90;99.90;;;;;;21067576;28;20151;-50
2021/12/25 17:45:37;;;;;;;1.60;0.80;;;3.90;99.90;;;;;;21049462;28;20113;-52
2021/12/25 17:55:39;;;;;;;1.13;0.60;;;3.90;99.90;;;;;;21069523;28;20054;-52
2021/12/25 18:05:44;;;;;;;1.73;0.55;;;3.90;99.90;;;;;;21081919;28;20031;-50
2021/12/25 18:15:46;;;;;;;1.90;0.75;;;3.90;99.90;;;;;;21081110;28;20117;-52
2021/12/25 18:25:52;;;;;;;2.10;0.80;;;3.90;99.90;;;;;;21080400;28;20031;-50
2021/12/25 18:35:54;;;;;;;1.77;0.80;;;3.90;99.90;;;;;;21079218;28;20032;-51
2021/12/25 18:45:59;;;;;;;1.10;0.80;;;3.90;99.90;;;;;;21078867;28;20040;-55
2021/12/25 18:56:04;;;;;;;3.75;1.20;;;4.00;99.90;;;;;;21061123;28;20096;-50
2021/12/25 19:06:07;;;;;;;0.75;0.50;;;4.00;99.90;;;;;;21075711;28;20453;-51
2021/12/25 19:16:10;;;;;;;1.13;0.60;;;4.00;99.90;;;;;;21076833;28;20284;-50
2021/12/25 19:26:14;;;;;;;1.15;0.50;;;4.10;99.90;;;;;;21075517;28;20434;-50
2021/12/25 19:36:17;;;;;;;1.00;0.60;;;4.10;99.90;;;;;;21074829;28;20105;-52
2021/12/25 19:46:22;;;;;;;2.92;0.52;;;4.00;99.90;;;;;;21073948;28;20032;-52
2021/12/25 19:56:28;;;;;;;1.38;0.73;;;3.90;99.90;;;;;;21072697;28;20089;-51
2021/12/25 20:06:31;;;;;;;1.60;0.60;;;3.80;99.90;;;;;;21073560;28;20438;-51
2021/12/25 20:16:36;;;;;;;1.20;0.50;;;3.80;99.90;;;;;;21070451;28;20031;-50
2021/12/25 20:26:39;;;;;;;1.38;0.70;;;3.70;99.90;;;;;;21069878;28;20028;-51
2021/12/25 20:36:44;;;;;;;2.28;1.20;;;3.50;99.90;;;;;;21068864;28;20031;-55
2021/12/25 20:46:49;;;;;;;1.60;0.93;;;3.50;99.90;;;;;;21068772;28;20096;-51
2021/12/25 20:56:55;;;;;;;1.17;0.60;;;3.40;99.90;;;;;;21068425;28;20024;-49
2021/12/25 21:06:58;;;;;;;1.13;0.50;;;3.40;99.90;;;;;;21066992;28;20090;-49
2021/12/25 21:17:01;;;;;;;1.80;0.75;;;3.40;99.90;;;;;;21066819;28;20036;-49
2021/12/25 21:27:04;;;;;;;1.45;0.70;;;3.40;99.90;;;;;;21065786;28;20040;-49
2021/12/25 21:37:07;;;;;;;1.60;0.20;;;3.40;99.90;;;;;;21065880;28;20043;-48
2021/12/25 21:47:11;;;;;;;0.28;0.10;;;3.40;99.90;;;;;;21065407;28;20492;-48
2021/12/25 21:57:13;;;;;;;0.00;0.00;;;3.40;99.90;;;;;;21065033;28;20062;-49
2021/12/25 22:07:26;;;;;;;0.10;0.00;;;3.40;99.90;;;;;;21065074;28;20052;-48
2021/12/25 22:17:30;;;;;;;0.00;0.00;;;3.40;99.90;;;;;;21064575;28;20033;-49
2021/12/25 22:27:32;;;;;;;0.05;0.00;;;3.40;99.90;;;;;;21064287;28;20040;-48
2021/12/25 22:37:35;;;;;;;0.85;0.28;;;3.40;99.90;;;;;;21063802;28;20141;-48
2021/12/25 22:47:39;;;;;;;0.10;0.10;;;3.40;99.90;;;;;;21078054;28;20036;-48
2021/12/25 22:57:42;;;;;;;0.10;0.05;;;3.30;99.90;;;;;;21077906;28;20028;-49
2021/12/25 23:07:45;;;;;;;0.00;0.00;;;3.30;99.90;;;;;;21076433;28;20044;-48
2021/12/25 23:17:48;;;;;;;0.10;0.00;;;3.30;99.90;;;;;;21076097;28;20105;-49
2021/12/25 23:27:51;;;;;;;0.60;0.00;;;3.20;99.90;;;;;;21075520;28;20054;-48
2021/12/25 23:37:53;;;;;;;0.00;0.00;;;3.10;99.90;;;;;;21075547;28;20036;-50
2021/12/25 23:47:56;;;;;;;0.00;0.00;;;3.00;99.90;;;;;;21073756;28;20089;-48
2021/12/25 23:58:00;;;;;;;0.00;0.00;;;2.80;99.90;;;;;;21072612;28;20040;-49
